Time;durP1;ratioP1;P1;durP2;ratioP2;P2;SDS_P1;SDS_P2;PMS_P1;PMS_P2;Temp;Humidity;BMP_temperature;BMP_pressure;BME280_temperature;BME280_humidity;BME280_pressure;Samples;Min_cycle;Max_cycle;Signal;HPM_P1;HPM_P2
2022/10/18 00:00:18;;;;;;;127.65;41.67;;;15.90;99.90;;;;;;5037383;28;20293;-77
2022/10/18 00:02:48;;;;;;;133.15;44.17;;;15.90;99.90;;;;;;5040017;28;20216;-77
2022/10/18 00:05:17;;;;;;;139.35;42.47;;;15.90;99.90;;;;;;5023823;28;20727;-77
2022/10/18 00:07:44;;;;;;;115.78;41.30;;;15.90;99.90;;;;;;5033315;28;20221;-77
2022/10/18 00:10:11;;;;;;;148.38;44.58;;;16.00;99.90;;;;;;5018420;28;20295;-77
2022/10/18 00:12:39;;;;;;;137.02;43.63;;;16.00;99.90;;;;;;5019114;28;20344;-77
2022/10/18 00:15:09;;;;;;;120.50;41.95;;;16.00;99.90;;;;;;5040808;28;20539;-77
2022/10/18 00:17:38;;;;;;;95.93;39.40;;;16.00;99.90;;;;;;5032724;28;20197;-76
2022/10/18 00:20:07;;;;;;;114.10;40.15;;;16.00;99.90;;;;;;5034922;28;20214;-77
2022/10/18 00:22:38;;;;;;;111.05;42.00;;;16.00;99.90;;;;;;5026006;28;20224;-77
2022/10/18 00:25:06;;;;;;;111.03;41.45;;;16.00;99.90;;;;;;5037145;28;20201;-78
2022/10/18 00:27:34;;;;;;;105.65;40.60;;;16.00;99.90;;;;;;5038820;28;20229;-77
2022/10/18 00:30:01;;;;;;;93.05;37.72;;;15.90;99.90;;;;;;5038214;28;20221;-78
2022/10/18 00:32:27;;;;;;;112.88;39.85;;;15.90;99.90;;;;;;5018968;28;20301;-78
2022/10/18 00:34:55;;;;;;;101.00;40.28;;;15.90;99.90;;;;;;5041366;28;20323;-77
2022/10/18 00:37:22;;;;;;;135.48;39.85;;;15.90;99.90;;;;;;5037149;28;20624;-77
2022/10/18 00:39:49;;;;;;;126.28;39.50;;;15.80;99.90;;;;;;5036491;28;20206;-78
2022/10/18 00:42:21;;;;;;;95.67;38.00;;;15.80;99.90;;;;;;5037760;28;20715;-77
2022/10/18 00:44:48;;;;;;;97.47;37.40;;;15.80;99.90;;;;;;5041925;28;20328;-76
2022/10/18 00:47:19;;;;;;;99.10;35.20;;;15.80;99.90;;;;;;5037960;28;20610;-77
2022/10/18 00:49:55;;;;;;;102.15;38.63;;;15.70;99.90;;;;;;5038786;28;20677;-77
2022/10/18 00:52:27;;;;;;;114.28;41.28;;;15.70;99.90;;;;;;5037597;28;20733;-77
2022/10/18 00:54:56;;;;;;;108.15;39.88;;;15.70;99.90;;;;;;5037509;28;20696;-77
2022/10/18 00:57:23;;;;;;;94.22;36.25;;;15.70;99.90;;;;;;5040392;28;20205;-77
2022/10/18 00:59:51;;;;;;;110.13;38.77;;;15.60;99.90;;;;;;5035510;28;20682;-78
2022/10/18 01:02:18;;;;;;;117.17;38.53;;;15.60;99.90;;;;;;5038404;28;20288;-79
2022/10/18 01:04:46;;;;;;;121.77;40.10;;;15.60;99.90;;;;;;5035214;28;20234;-79
2022/10/18 01:07:33;;;;;;;134.40;41.40;;;15.60;99.90;;;;;;5036341;28;20253;-77
2022/10/18 01:10:25;;;;;;;115.73;39.30;;;15.60;99.90;;;;;;5038862;28;20255;-77
2022/10/18 01:13:14;;;;;;;114.90;38.87;;;15.50;99.90;;;;;;5043324;28;20197;-77
2022/10/18 01:15:59;;;;;;;178.30;30.03;;;15.50;99.90;;;;;;5035336;28;20557;-77
2022/10/18 01:18:47;;;;;;;248.57;29.93;;;15.50;99.90;;;;;;5017696;28;20674;-77
2022/10/18 01:21:27;;;;;;;298.90;36.43;;;15.40;99.90;;;;;;5038614;28;20288;-77
2022/10/18 01:24:02;;;;;;;171.70;27.23;;;15.30;99.90;;;;;;5034796;28;20193;-78
2022/10/18 01:26:41;;;;;;;264.33;32.60;;;15.30;99.90;;;;;;5019711;28;20604;-78
2022/10/18 01:29:46;;;;;;;103.97;23.53;;;15.30;99.90;;;;;;5047398;28;20218;-76
2022/10/18 01:32:25;;;;;;;88.37;25.30;;;15.20;99.90;;;;;;4998448;28;20603;-78
2022/10/18 01:34:58;;;;;;;170.33;29.33;;;15.20;99.90;;;;;;5036853;28;20247;-78
2022/10/18 01:37:32;;;;;;;52.27;21.90;;;15.00;99.90;;;;;;5035334;28;20756;-78
2022/10/18 01:40:07;;;;;;;85.23;24.70;;;15.10;99.90;;;;;;5018405;28;20209;-77
2022/10/18 01:42:34;;;;;;;50.37;22.33;;;15.00;99.90;;;;;;5023949;28;20289;-77
2022/10/18 01:45:02;;;;;;;139.97;28.73;;;15.00;99.90;;;;;;5038029;28;20219;-78
2022/10/18 01:47:30;;;;;;;75.27;26.60;;;15.10;99.90;;;;;;5046131;28;20217;-76
2022/10/18 01:49:59;;;;;;;49.83;21.13;;;14.90;99.90;;;;;;5039851;28;20223;-77
2022/10/18 01:52:26;;;;;;;55.67;23.53;;;14.80;99.90;;;;;;5022365;28;20205;-77
2022/10/18 01:54:54;;;;;;;89.60;25.97;;;15.10;99.90;;;;;;5042969;28;20239;-77
2022/10/18 01:57:51;;;;;;;58.27;25.40;;;15.00;99.90;;;;;;5022514;28;20229;-77
2022/10/18 02:00:23;;;;;;;68.03;23.20;;;14.80;99.90;;;;;;5040463;28;20206;-77
2022/10/18 02:02:58;;;;;;;74.17;23.97;;;14.80;99.90;;;;;;5038669;28;20293;-77
2022/10/18 02:05:40;;;;;;;61.50;25.40;;;14.70;99.90;;;;;;5040767;28;20213;-77
2022/10/18 02:08:27;;;;;;;74.73;26.10;;;14.80;99.90;;;;;;5040472;28;20236;-77
2022/10/18 02:11:07;;;;;;;68.60;25.33;;;14.80;99.90;;;;;;5040657;28;20684;-76
2022/10/18 02:14:09;;;;;;;56.80;24.73;;;14.80;99.90;;;;;;5019523;28;20207;-77
2022/10/18 02:16:46;;;;;;;63.87;25.93;;;14.80;99.90;;;;;;5022149;28;20672;-79
2022/10/18 02:19:31;;;;;;;53.90;25.13;;;14.80;99.90;;;;;;5041842;28;20220;-79
2022/10/18 02:21:59;;;;;;;58.33;24.93;;;14.80;99.90;;;;;;5025972;28;20201;-77
2022/10/18 02:24:33;;;;;;;59.60;26.50;;;14.80;99.90;;;;;;5037257;28;20231;-77
2022/10/18 02:27:01;;;;;;;65.43;26.27;;;14.80;99.90;;;;;;5040816;28;20202;-77
2022/10/18 02:29:28;;;;;;;58.23;24.43;;;14.90;99.90;;;;;;5011940;28;20265;-78
2022/10/18 02:32:10;;;;;;;61.80;26.73;;;14.80;99.90;;;;;;5040448;28;20240;-77
2022/10/18 02:34:44;;;;;;;73.73;29.57;;;14.80;99.90;;;;;;5038021;28;20229;-77
2022/10/18 02:37:13;;;;;;;96.33;31.03;;;14.80;99.90;;;;;;5042489;28;20288;-77
2022/10/18 02:39:47;;;;;;;66.03;27.27;;;14.80;99.90;;;;;;5037366;28;20201;-77
2022/10/18 02:42:15;;;;;;;76.67;29.80;;;14.80;99.90;;;;;;5040939;28;20320;-77
2022/10/18 02:44:42;;;;;;;87.17;30.80;;;14.80;99.90;;;;;;5039293;28;20725;-77
2022/10/18 02:47:10;;;;;;;89.83;31.33;;;14.80;99.90;;;;;;5021040;28;20572;-78
2022/10/18 02:49:37;;;;;;;110.27;34.40;;;14.80;99.90;;;;;;5039610;28;20236;-78
2022/10/18 02:52:03;;;;;;;85.77;32.47;;;14.80;99.90;;;;;;5019850;28;20289;-78
2022/10/18 02:54:30;;;;;;;90.57;30.27;;;14.80;99.90;;;;;;5040437;28;20209;-78
2022/10/18 02:56:57;;;;;;;89.97;31.27;;;14.70;99.90;;;;;;5022149;28;20204;-78
2022/10/18 02:59:24;;;;;;;76.73;29.70;;;14.70;99.90;;;;;;5021788;28;20216;-78
2022/10/18 03:01:50;;;;;;;84.30;30.27;;;14.70;99.90;;;;;;5047047;28;20942;-77
2022/10/18 03:04:17;;;;;;;66.17;28.03;;;14.70;99.90;;;;;;5039210;28;20225;-78
2022/10/18 03:06:44;;;;;;;76.63;30.00;;;14.70;99.90;;;;;;5021187;28;20217;-76
2022/10/18 03:09:11;;;;;;;90.53;30.43;;;14.70;99.90;;;;;;5038173;28;20268;-79
2022/10/18 03:11:37;;;;;;;95.87;30.53;;;14.70;99.90;;;;;;5041190;28;20292;-78
2022/10/18 03:14:04;;;;;;;71.67;29.50;;;14.70;99.90;;;;;;5022628;28;20229;-78
2022/10/18 03:16:32;;;;;;;79.00;30.00;;;14.70;99.90;;;;;;5038131;28;20220;-78
2022/10/18 03:18:59;;;;;;;89.93;32.00;;;14.70;99.90;;;;;;5038176;28;20221;-77
2022/10/18 03:21:26;;;;;;;85.20;29.87;;;14.60;99.90;;;;;;5024617;28;20669;-78
2022/10/18 03:23:52;;;;;;;94.73;32.87;;;14.60;99.90;;;;;;5032533;28;20247;-77
2022/10/18 03:26:20;;;;;;;103.50;31.97;;;14.60;99.90;;;;;;5040811;28;20325;-78
2022/10/18 03:28:47;;;;;;;112.80;33.03;;;14.60;99.90;;;;;;5023349;28;20306;-78
2022/10/18 03:31:14;;;;;;;98.93;32.27;;;14.60;99.90;;;;;;5042830;28;20292;-77
2022/10/18 03:33:41;;;;;;;125.43;35.60;;;14.50;99.90;;;;;;5037451;28;20244;-78
2022/10/18 03:36:08;;;;;;;119.77;34.83;;;14.60;99.90;;;;;;5021100;28;20260;-78
2022/10/18 03:38:35;;;;;;;101.83;33.30;;;14.50;99.90;;;;;;5040297;28;20327;-77
2022/10/18 03:41:01;;;;;;;198.90;39.37;;;14.50;99.90;;;;;;5040741;28;20201;-79
2022/10/18 03:43:28;;;;;;;89.83;32.07;;;14.50;99.90;;;;;;5033983;28;20260;-77
2022/10/18 03:45:55;;;;;;;98.63;33.90;;;14.50;99.90;;;;;;5040183;28;20209;-78
2022/10/18 03:48:22;;;;;;;112.93;34.07;;;14.60;99.90;;;;;;5038602;28;20265;-78
2022/10/18 03:50:49;;;;;;;97.03;31.97;;;14.60;99.90;;;;;;5017926;28;20245;-79
2022/10/18 03:53:19;;;;;;;88.93;32.63;;;14.60;99.90;;;;;;5036283;28;20305;-78
2022/10/18 03:55:51;;;;;;;100.37;33.40;;;14.60;99.90;;;;;;5020135;28;20202;-79
2022/10/18 03:58:18;;;;;;;82.33;32.10;;;14.60;99.90;;;;;;5038294;28;20549;-78
2022/10/18 04:00:52;;;;;;;94.70;32.33;;;14.60;99.90;;;;;;5044425;28;20296;-78
2022/10/18 04:03:20;;;;;;;80.50;30.70;;;14.60;99.90;;;;;;5043365;28;20296;-79
2022/10/18 04:05:48;;;;;;;92.93;30.97;;;14.60;99.90;;;;;;5040436;28;20261;-79
2022/10/18 04:08:15;;;;;;;70.90;27.70;;;14.60;99.90;;;;;;5037687;28;20283;-78
2022/10/18 04:10:42;;;;;;;91.30;30.13;;;14.60;99.90;;;;;;5037690;28;20206;-78
2022/10/18 04:13:12;;;;;;;72.87;27.80;;;14.50;99.90;;;;;;5039844;28;20213;-78
2022/10/18 04:15:39;;;;;;;96.07;31.47;;;14.50;99.90;;;;;;5036820;28;20487;-78
2022/10/18 04:18:06;;;;;;;101.23;30.30;;;14.50;99.90;;;;;;5038662;28;20221;-77
2022/10/18 04:20:33;;;;;;;76.83;28.87;;;14.90;99.90;;;;;;5021016;28;20307;-79
2022/10/18 04:23:00;;;;;;;70.43;28.70;;;14.30;99.90;;;;;;5045849;28;20209;-77
2022/10/18 04:25:28;;;;;;;85.60;29.97;;;;;;;;;;5054395;28;20197;-77
2022/10/18 04:27:55;;;;;;;151.57;32.00;;;14.30;99.90;;;;;;5015574;28;20206;-77
2022/10/18 04:30:22;;;;;;;77.23;28.67;;;14.20;99.90;;;;;;5042276;28;20241;-77
2022/10/18 04:32:48;;;;;;;105.93;30.47;;;14.20;99.90;;;;;;5040171;28;20209;-77
2022/10/18 04:35:15;;;;;;;89.00;29.70;;;14.20;99.90;;;;;;5035494;28;20229;-79
2022/10/18 04:37:42;;;;;;;83.97;27.17;;;14.10;99.90;;;;;;5039606;28;20193;-77
2022/10/18 04:40:11;;;;;;;97.93;30.03;;;14.10;99.90;;;;;;5021181;28;20202;-78
2022/10/18 04:42:37;;;;;;;76.33;27.97;;;14.00;99.90;;;;;;5019740;28;20218;-76
2022/10/18 04:45:05;;;;;;;90.47;29.43;;;14.00;99.90;;;;;;5040366;28;20210;-78
2022/10/18 04:47:33;;;;;;;73.03;26.07;;;13.90;99.90;;;;;;5040656;28;21024;-79
2022/10/18 04:50:00;;;;;;;99.90;30.63;;;13.90;99.90;;;;;;5038033;28;20608;-77
2022/10/18 04:52:30;;;;;;;93.77;29.00;;;13.80;99.90;;;;;;5041503;28;20195;-77
2022/10/18 04:54:57;;;;;;;135.77;32.13;;;;;;;;;;5044094;28;20280;-77
2022/10/18 04:57:24;;;;;;;89.63;29.93;;;13.70;99.90;;;;;;5056708;28;20225;-76
2022/10/18 04:59:51;;;;;;;200.70;31.53;;;13.70;99.90;;;;;;5056601;28;20221;-77
2022/10/18 05:02:18;;;;;;;325.37;39.03;;;13.60;99.90;;;;;;5048137;28;20604;-78
2022/10/18 05:04:44;;;;;;;306.53;36.27;;;13.60;99.90;;;;;;5015420;28;20276;-78
2022/10/18 05:07:11;;;;;;;453.90;46.10;;;13.50;99.90;;;;;;5038462;28;20198;-79
2022/10/18 05:09:38;;;;;;;315.63;34.97;;;13.50;99.90;;;;;;5029205;28;20252;-79
2022/10/18 05:12:05;;;;;;;268.20;31.73;;;13.50;99.90;;;;;;5040093;28;20638;-77
2022/10/18 05:14:31;;;;;;;210.53;30.27;;;13.40;99.90;;;;;;5036841;28;20211;-78
2022/10/18 05:16:58;;;;;;;77.20;22.37;;;13.40;99.90;;;;;;5038137;28;20297;-78
2022/10/18 05:19:25;;;;;;;128.27;25.03;;;13.30;99.90;;;;;;5034248;28;20327;-79
2022/10/18 05:21:51;;;;;;;251.73;29.33;;;13.30;99.90;;;;;;5045634;28;20637;-77
2022/10/18 05:24:18;;;;;;;336.03;35.67;;;13.30;99.90;;;;;;5026612;28;20206;-78
2022/10/18 05:26:49;;;;;;;127.53;23.20;;;13.30;99.90;;;;;;5054489;28;20189;-78
2022/10/18 05:29:16;;;;;;;89.30;21.47;;;13.20;99.90;;;;;;5048147;28;20259;-78
2022/10/18 05:31:43;;;;;;;96.97;23.90;;;13.20;99.90;;;;;;5025461;28;20307;-78
2022/10/18 05:34:10;;;;;;;245.67;30.07;;;13.20;99.90;;;;;;5012096;28;20305;-78
2022/10/18 05:36:37;;;;;;;226.37;30.23;;;13.20;99.90;;;;;;5018391;28;20218;-78
2022/10/18 05:39:04;;;;;;;172.07;26.23;;;13.20;99.90;;;;;;5022608;28;20645;-77
2022/10/18 05:41:31;;;;;;;276.37;33.80;;;13.20;99.90;;;;;;5024654;28;20650;-78
2022/10/18 05:44:01;;;;;;;170.07;27.70;;;13.20;99.90;;;;;;5023154;28;20202;-79
2022/10/18 05:46:30;;;;;;;118.87;26.90;;;13.20;99.90;;;;;;5025201;28;20284;-78
2022/10/18 05:48:57;;;;;;;72.13;21.87;;;13.10;99.90;;;;;;5000024;28;20516;-78
2022/10/18 05:51:23;;;;;;;188.73;25.13;;;13.10;99.90;;;;;;4998318;28;20207;-78
2022/10/18 05:53:51;;;;;;;205.60;28.37;;;13.00;99.90;;;;;;5004177;28;20202;-77
2022/10/18 05:56:18;;;;;;;157.77;26.30;;;13.00;99.90;;;;;;5021737;28;20241;-78
2022/10/18 05:58:50;;;;;;;156.50;26.50;;;13.00;99.90;;;;;;5025190;28;20249;-77
2022/10/18 06:01:17;;;;;;;272.83;34.47;;;12.90;99.90;;;;;;5011862;28;20280;-77
2022/10/18 06:03:47;;;;;;;139.10;26.50;;;12.90;99.90;;;;;;5023374;28;20496;-78
2022/10/18 06:06:14;;;;;;;128.47;27.33;;;13.00;99.90;;;;;;5027339;28;20693;-78
2022/10/18 06:08:42;;;;;;;160.23;28.37;;;12.90;99.90;;;;;;5009524;28;20198;-77
2022/10/18 06:11:12;;;;;;;163.60;27.17;;;12.90;99.90;;;;;;5010662;28;20280;-77
2022/10/18 06:13:44;;;;;;;147.10;27.30;;;12.90;99.90;;;;;;5030846;28;20281;-77
2022/10/18 06:16:12;;;;;;;67.73;22.10;;;13.00;99.90;;;;;;5022400;28;20230;-76
2022/10/18 06:18:40;;;;;;;48.00;20.27;;;13.00;99.90;;;;;;5025253;28;20248;-77
2022/10/18 06:21:07;;;;;;;193.57;29.00;;;13.00;99.90;;;;;;5025913;28;20603;-77
2022/10/18 06:23:34;;;;;;;165.87;28.50;;;13.00;99.90;;;;;;5028037;28;20273;-76
2022/10/18 06:26:03;;;;;;;117.83;27.33;;;13.00;99.90;;;;;;5007663;28;20289;-77
2022/10/18 06:28:32;;;;;;;156.73;28.90;;;13.00;99.90;;;;;;5025759;28;20273;-77
2022/10/18 06:30:59;;;;;;;129.27;27.40;;;13.00;99.90;;;;;;5023508;28;20206;-79
2022/10/18 06:33:26;;;;;;;118.40;25.53;;;12.90;99.90;;;;;;5026871;28;20272;-77
2022/10/18 06:35:55;;;;;;;142.73;26.93;;;13.10;99.90;;;;;;5033000;28;20221;-76
2022/10/18 06:38:22;;;;;;;178.47;29.23;;;13.20;99.90;;;;;;5027220;28;20233;-76
2022/10/18 06:40:50;;;;;;;149.73;26.70;;;13.10;99.90;;;;;;5009961;28;20297;-78
2022/10/18 06:43:16;;;;;;;278.23;33.17;;;13.10;99.90;;;;;;5008969;28;20662;-80
2022/10/18 06:45:47;;;;;;;151.30;27.40;;;13.10;99.90;;;;;;5027429;28;20598;-79
2022/10/18 06:48:15;;;;;;;93.63;23.97;;;13.10;99.90;;;;;;5024681;28;20225;-79
2022/10/18 06:50:49;;;;;;;207.07;29.70;;;13.10;99.90;;;;;;5027956;28;20493;-79
2022/10/18 06:53:15;;;;;;;195.10;30.70;;;13.10;99.90;;;;;;5024355;28;20547;-77
2022/10/18 06:55:45;;;;;;;80.90;23.30;;;13.10;99.90;;;;;;5024951;28;20646;-78
2022/10/18 06:58:12;;;;;;;274.70;34.70;;;13.10;99.90;;;;;;5026446;28;20333;-78
2022/10/18 07:00:39;;;;;;;190.57;30.20;;;13.10;99.90;;;;;;5011843;28;20606;-77
2022/10/18 07:03:06;;;;;;;153.37;29.07;;;13.10;99.90;;;;;;5008711;28;20209;-78
2022/10/18 07:05:33;;;;;;;140.33;29.67;;;13.20;99.90;;;;;;5030817;28;20313;-79
2022/10/18 07:08:01;;;;;;;82.10;24.50;;;13.30;99.90;;;;;;5022643;28;20201;-76
2022/10/18 07:10:28;;;;;;;117.63;25.97;;;13.20;99.90;;;;;;5026465;28;20226;-78
2022/10/18 07:12:55;;;;;;;97.73;25.40;;;13.20;99.90;;;;;;5025813;28;20212;-77
2022/10/18 07:15:42;;;;;;;59.87;22.20;;;13.20;99.90;;;;;;5023287;28;20198;-76
2022/10/18 07:18:09;;;;;;;41.73;19.97;;;13.20;99.90;;;;;;5026037;28;20206;-77
2022/10/18 07:20:37;;;;;;;46.20;20.93;;;13.20;99.90;;;;;;4994230;28;20240;-78
2022/10/18 07:23:07;;;;;;;45.43;19.93;;;13.20;99.90;;;;;;5018209;28;20194;-77
2022/10/18 07:25:35;;;;;;;42.23;20.73;;;13.20;99.90;;;;;;5023219;28;20233;-78
2022/10/18 07:28:02;;;;;;;38.93;19.03;;;13.10;99.90;;;;;;5004194;28;20204;-77
2022/10/18 07:30:28;;;;;;;39.90;20.67;;;13.10;99.90;;;;;;5028271;28;20731;-77
2022/10/18 07:32:55;;;;;;;49.83;22.37;;;13.10;99.90;;;;;;5020399;28;20755;-77
2022/10/18 07:35:22;;;;;;;46.27;21.30;;;13.10;99.90;;;;;;5028268;28;20231;-78
2022/10/18 07:37:49;;;;;;;55.43;22.53;;;13.10;99.90;;;;;;4997698;28;20663;-77
2022/10/18 07:40:16;;;;;;;52.83;22.97;;;13.20;99.90;;;;;;5024852;28;20210;-78
2022/10/18 07:42:42;;;;;;;53.37;23.63;;;13.20;99.90;;;;;;5028091;28;20198;-76
2022/10/18 07:45:11;;;;;;;61.03;24.33;;;13.20;99.90;;;;;;5009422;28;20208;-77
2022/10/18 07:47:38;;;;;;;63.03;25.63;;;13.30;99.90;;;;;;5008898;28;20289;-77
2022/10/18 07:50:06;;;;;;;61.10;24.83;;;13.30;99.90;;;;;;5032613;28;20589;-79
2022/10/18 07:52:32;;;;;;;61.00;25.93;;;13.30;99.90;;;;;;5027038;28;20289;-78
2022/10/18 07:54:59;;;;;;;57.47;23.63;;;13.30;99.90;;;;;;5024968;28;20657;-78
2022/10/18 07:57:26;;;;;;;66.03;24.37;;;13.40;99.90;;;;;;5005792;28;20229;-78
2022/10/18 07:59:55;;;;;;;61.70;24.27;;;13.40;99.90;;;;;;5024951;28;20198;-80
2022/10/18 08:02:23;;;;;;;58.80;23.37;;;13.50;99.90;;;;;;5025751;28;20204;-77
2022/10/18 08:04:50;;;;;;;57.60;23.33;;;13.60;99.90;;;;;;5026088;28;20779;-77
2022/10/18 08:07:17;;;;;;;58.67;22.93;;;13.60;99.90;;;;;;5022616;28;20206;-78
2022/10/18 08:09:44;;;;;;;58.10;21.83;;;13.60;99.90;;;;;;5006213;28;20272;-78
2022/10/18 08:12:11;;;;;;;61.67;23.27;;;13.70;99.90;;;;;;5030215;28;20202;-80
2022/10/18 08:14:37;;;;;;;47.60;19.00;;;13.70;99.90;;;;;;5022027;28;20269;-78
2022/10/18 08:17:04;;;;;;;50.33;20.07;;;13.80;99.90;;;;;;5026043;28;20645;-78
2022/10/18 08:19:31;;;;;;;50.23;20.20;;;13.70;99.90;;;;;;5023521;28;20222;-77
2022/10/18 08:21:58;;;;;;;45.93;19.27;;;13.80;99.90;;;;;;5025760;28;20241;-78
2022/10/18 08:24:25;;;;;;;39.57;16.17;;;13.80;99.90;;;;;;5019616;28;20229;-78
2022/10/18 08:26:52;;;;;;;40.27;13.90;;;13.90;99.90;;;;;;5002843;28;20721;-78
2022/10/18 08:29:19;;;;;;;27.60;11.03;;;13.90;99.90;;;;;;5025585;28;20640;-77
2022/10/18 08:31:52;;;;;;;28.60;12.00;;;13.90;99.90;;;;;;5023946;28;20248;-78
2022/10/18 08:34:19;;;;;;;30.23;10.47;;;14.00;99.90;;;;;;5029873;28;20720;-78
2022/10/18 08:36:46;;;;;;;30.03;11.10;;;14.00;99.90;;;;;;5020631;28;20677;-78
2022/10/18 08:39:12;;;;;;;39.27;9.83;;;14.00;99.90;;;;;;5003957;28;20764;-79
2022/10/18 08:41:51;;;;;;;19.13;8.40;;;14.10;99.90;;;;;;5010148;28;20341;-77
2022/10/18 08:44:19;;;;;;;22.00;7.43;;;14.10;99.90;;;;;;5019959;28;20198;-78
2022/10/18 08:46:48;;;;;;;15.33;5.83;;;14.10;99.90;;;;;;5010020;28;20198;-77
2022/10/18 08:49:27;;;;;;;14.37;5.23;;;14.10;99.90;;;;;;5031195;28;20591;-78
2022/10/18 08:51:55;;;;;;;17.47;5.70;;;14.10;99.90;;;;;;5025116;28;20201;-76
2022/10/18 08:54:53;;;;;;;17.93;5.00;;;14.10;99.90;;;;;;5002477;28;20332;-77
2022/10/18 08:57:21;;;;;;;9.40;4.13;;;14.20;99.90;;;;;;5029677;28;21012;-77
2022/10/18 08:59:48;;;;;;;12.40;4.33;;;14.10;99.90;;;;;;5005978;28;20206;-77
2022/10/18 09:02:48;;;;;;;15.10;3.63;;;14.20;99.90;;;;;;5006690;28;20659;-78
2022/10/18 09:05:19;;;;;;;16.07;4.00;;;14.20;99.90;;;;;;5018779;28;20226;-77
2022/10/18 09:08:10;;;;;;;13.93;4.80;;;14.30;99.90;;;;;;5021398;28;20202;-77
2022/10/18 09:10:55;;;;;;;14.67;3.50;;;14.20;99.90;;;;;;5020953;28;20232;-77
2022/10/18 09:14:04;;;;;;;22.00;4.67;;;14.20;99.90;;;;;;5025729;28;20198;-76
2022/10/18 09:16:46;;;;;;;15.37;3.33;;;14.30;99.90;;;;;;5015561;28;20684;-77
2022/10/18 09:19:27;;;;;;;9.80;2.60;;;14.30;99.90;;;;;;5020167;28;20220;-77
2022/10/18 09:22:16;;;;;;;12.90;3.50;;;14.30;99.90;;;;;;4999939;28;20229;-75
2022/10/18 09:25:18;;;;;;;11.03;2.23;;;14.20;99.90;;;;;;5014138;28;20233;-76
2022/10/18 09:27:59;;;;;;;7.27;1.77;;;14.20;99.90;;;;;;4999163;28;20290;-78
2022/10/18 09:30:44;;;;;;;7.83;2.00;;;14.20;99.90;;;;;;5024347;28;20799;-76
2022/10/18 09:33:27;;;;;;;7.23;2.20;;;14.20;99.90;;;;;;5021766;28;20709;-75
2022/10/18 09:35:57;;;;;;;11.50;1.80;;;14.20;99.90;;;;;;5015036;28;20651;-76
2022/10/18 09:38:29;;;;;;;9.13;2.10;;;14.20;99.90;;;;;;5015429;28;20300;-78
2022/10/18 09:41:04;;;;;;;14.47;2.53;;;14.40;99.90;;;;;;5029609;28;20296;-77
2022/10/18 09:43:46;;;;;;;11.20;2.57;;;14.30;99.90;;;;;;5028142;28;20285;-78
2022/10/18 09:46:15;;;;;;;9.33;1.83;;;14.30;99.90;;;;;;4997897;28;20670;-79
2022/10/18 09:48:50;;;;;;;5.40;1.80;;;14.40;99.90;;;;;;5014204;28;20662;-76
2022/10/18 09:51:24;;;;;;;5.50;1.57;;;14.50;99.90;;;;;;5016796;28;20252;-77
2022/10/18 09:54:19;;;;;;;5.73;1.37;;;14.50;99.90;;;;;;5028494;28;20198;-76
2022/10/18 09:57:09;;;;;;;7.67;1.80;;;14.50;99.90;;;;;;5006742;28;20206;-76
2022/10/18 09:59:41;;;;;;;4.63;1.20;;;14.60;99.90;;;;;;5001251;28;20297;-77
2022/10/18 10:02:22;;;;;;;7.93;1.70;;;15.20;99.90;;;;;;5016443;28;20202;-78
2022/10/18 10:04:49;;;;;;;9.03;1.57;;;14.60;99.90;;;;;;5025453;28;20233;-76
2022/10/18 10:07:25;;;;;;;4.07;1.20;;;14.60;99.90;;;;;;5020408;28;20236;-77
2022/10/18 10:09:58;;;;;;;7.00;1.10;;;14.60;99.90;;;;;;5027960;28;20263;-77
2022/10/18 10:12:49;;;;;;;8.70;1.60;;;14.70;99.90;;;;;;5031575;28;20202;-75
2022/10/18 10:15:26;;;;;;;9.77;1.43;;;14.70;99.90;;;;;;4996259;28;20205;-78
2022/10/18 10:18:24;;;;;;;3.93;1.27;;;14.70;99.90;;;;;;5022767;28;20208;-77
2022/10/18 10:20:57;;;;;;;9.40;1.50;;;14.70;99.90;;;;;;5023415;28;20246;-76
2022/10/18 10:23:27;;;;;;;7.07;1.40;;;15.10;99.90;;;;;;5032122;28;20688;-76
2022/10/18 10:26:19;;;;;;;4.93;1.43;;;14.50;99.90;;;;;;5029048;28;20277;-76
2022/10/18 10:28:47;;;;;;;8.97;1.23;;;14.80;99.90;;;;;;5021727;28;20190;-76
2022/10/18 10:31:24;;;;;;;6.50;1.40;;;14.80;99.90;;;;;;5022925;28;20231;-75
2022/10/18 10:34:13;;;;;;;6.80;1.47;;;14.90;99.90;;;;;;5022978;28;20681;-77
2022/10/18 10:36:52;;;;;;;5.70;1.40;;;15.00;99.90;;;;;;5016720;28;20297;-77
2022/10/18 10:39:21;;;;;;;5.53;1.73;;;15.30;99.90;;;;;;5010052;28;20997;-76
2022/10/18 10:41:57;;;;;;;7.20;1.60;;;15.40;99.90;;;;;;5004917;28;20214;-77
2022/10/18 10:44:27;;;;;;;5.57;1.23;;;15.20;99.90;;;;;;5017960;28;20751;-78
2022/10/18 10:46:55;;;;;;;5.93;1.50;;;15.30;99.90;;;;;;5024686;28;20288;-77
2022/10/18 10:49:37;;;;;;;5.43;1.40;;;15.50;99.90;;;;;;5032903;28;20221;-77
2022/10/18 10:52:16;;;;;;;6.20;1.33;;;15.60;99.90;;;;;;5005299;28;20199;-77
2022/10/18 10:54:56;;;;;;;3.72;1.40;;;15.70;99.90;;;;;;5002453;28;20194;-76
2022/10/18 10:57:44;;;;;;;8.15;1.42;;;15.80;99.90;;;;;;5019158;28;20210;-76
2022/10/18 11:00:48;;;;;;;5.63;1.10;;;16.50;99.90;;;;;;5020201;28;20657;-74
2022/10/18 11:03:17;;;;;;;6.05;1.48;;;16.10;99.90;;;;;;5026009;28;20280;-75
2022/10/18 11:06:00;;;;;;;7.18;1.65;;;16.20;99.90;;;;;;5005885;28;20727;-76
2022/10/18 11:08:34;;;;;;;6.22;1.50;;;16.30;99.90;;;;;;5022783;28;20391;-76
2022/10/18 11:11:04;;;;;;;4.53;1.30;;;16.40;99.90;;;;;;5022038;28;20229;-76
2022/10/18 11:13:46;;;;;;;5.20;1.42;;;16.60;99.90;;;;;;5022442;28;20640;-77
2022/10/18 11:16:40;;;;;;;4.55;1.88;;;16.70;99.90;;;;;;5024774;28;20575;-76
2022/10/18 11:19:19;;;;;;;3.55;1.30;;;16.80;99.90;;;;;;5012146;28;20814;-75
2022/10/18 11:21:52;;;;;;;2.65;1.10;;;16.90;99.90;;;;;;5008213;28;20313;-77
2022/10/18 11:24:20;;;;;;;3.60;1.05;;;17.00;99.90;;;;;;5025453;28;20655;-76
2022/10/18 11:27:18;;;;;;;3.38;1.02;;;17.00;99.90;;;;;;5021549;28;20697;-76
2022/10/18 11:30:20;;;;;;;4.43;1.30;;;17.10;99.90;;;;;;5028781;28;20312;-76
2022/10/18 11:32:59;;;;;;;5.78;1.25;;;17.20;99.90;;;;;;5005470;28;20359;-77
2022/10/18 11:35:42;;;;;;;5.55;1.17;;;17.50;99.90;;;;;;5020482;28;20261;-76
2022/10/18 11:38:37;;;;;;;3.97;1.00;;;17.30;99.90;;;;;;5022443;28;20238;-76
2022/10/18 11:41:21;;;;;;;7.05;1.33;;;17.40;99.90;;;;;;5023732;28;20202;-76
2022/10/18 11:44:06;;;;;;;3.78;0.88;;;17.50;99.90;;;;;;5008248;28;20293;-77
2022/10/18 11:46:49;;;;;;;6.07;1.00;;;17.90;99.90;;;;;;5034104;28;20206;-77
2022/10/18 11:49:36;;;;;;;5.10;1.38;;;17.60;99.90;;;;;;5039943;28;20662;-77
2022/10/18 11:52:14;;;;;;;4.00;1.00;;;17.70;99.90;;;;;;5044374;28;20228;-77
2022/10/18 11:55:04;;;;;;;7.85;1.13;;;17.80;99.90;;;;;;5016401;28;20228;-75
2022/10/18 11:57:48;;;;;;;5.47;1.15;;;17.70;99.90;;;;;;5020196;28;20262;-77
2022/10/18 12:00:22;;;;;;;5.18;1.48;;;17.90;99.90;;;;;;5030561;28;20189;-77
2022/10/18 12:03:20;;;;;;;4.35;1.15;;;17.90;99.90;;;;;;5028696;28;20197;-77
2022/10/18 12:05:49;;;;;;;6.38;1.80;;;18.20;99.90;;;;;;5025797;28;20213;-77
2022/10/18 12:08:24;;;;;;;6.57;1.73;;;19.00;99.90;;;;;;5016577;28;20253;-77
2022/10/18 12:10:56;;;;;;;5.22;1.13;;;18.30;99.90;;;;;;5025249;28;20268;-76
2022/10/18 12:13:43;;;;;;;4.93;1.30;;;18.60;99.90;;;;;;5021799;28;20216;-76
2022/10/18 12:16:11;;;;;;;5.00;1.17;;;18.30;99.90;;;;;;5008163;28;20235;-76
2022/10/18 12:18:52;;;;;;;3.75;1.60;;;18.20;99.90;;;;;;5020487;28;20292;-77
2022/10/18 12:21:21;;;;;;;7.20;1.58;;;18.30;99.90;;;;;;5021553;28;20835;-75
2022/10/18 12:23:58;;;;;;;5.47;1.35;;;18.30;99.90;;;;;;5024197;28;20625;-75
2022/10/18 12:26:27;;;;;;;11.88;1.80;;;18.50;99.90;;;;;;5022816;28;20208;-75
2022/10/18 12:29:12;;;;;;;3.83;1.30;;;18.50;99.90;;;;;;5024751;28;20296;-75
2022/10/18 12:31:42;;;;;;;9.23;1.38;;;18.60;99.90;;;;;;5019955;28;20292;-76
2022/10/18 12:34:20;;;;;;;3.63;1.05;;;18.60;99.90;;;;;;5021255;28;20232;-76
2022/10/18 12:37:09;;;;;;;4.10;1.02;;;18.60;99.90;;;;;;5004173;28;20288;-76
2022/10/18 12:39:50;;;;;;;7.40;1.42;;;18.60;99.90;;;;;;5017106;28;20664;-77
2022/10/18 12:42:43;;;;;;;3.67;1.15;;;18.50;99.90;;;;;;5021852;28;20248;-77
2022/10/18 12:45:33;;;;;;;6.90;1.40;;;18.50;99.90;;;;;;4995609;28;20205;-79
2022/10/18 12:48:24;;;;;;;3.83;1.35;;;18.40;99.90;;;;;;5012706;28;20210;-77
2022/10/18 12:51:05;;;;;;;5.95;1.30;;;18.30;99.90;;;;;;5024296;28;20320;-75
2022/10/18 12:53:33;;;;;;;6.68;1.20;;;18.50;99.90;;;;;;5021520;28;20225;-77
2022/10/18 12:56:29;;;;;;;7.13;1.30;;;18.60;99.90;;;;;;5026911;28;20669;-76
2022/10/18 12:59:14;;;;;;;5.13;1.35;;;18.60;99.90;;;;;;5016825;28;20210;-78